Time;durP1;ratioP1;P1;durP2;ratioP2;P2;SDS_P1;SDS_P2;PMS_P1;PMS_P2;Temp;Humidity;BMP_temperature;BMP_pressure;BME280_temperature;BME280_humidity;BME280_pressure;Samples;Min_cycle;Max_cycle;Signal;HPM_P1;HPM_P2
2023/01/24 00:00:15;;;;;;;19.65;10.00;;;;;;;-2.02;73.10;102411.16;4976004;28;20042;-43
2023/01/24 00:02:42;;;;;;;26.63;9.15;;;;;;;-2.02;72.40;102411.16;4976719;28;20054;-45
2023/01/24 00:05:09;;;;;;;23.33;9.02;;;;;;;-2.03;72.82;102411.94;4974486;28;20577;-44
2023/01/24 00:07:36;;;;;;;20.70;10.30;;;;;;;-2.04;73.37;102417.75;4982072;28;20406;-44
2023/01/24 00:10:05;;;;;;;23.20;10.98;;;;;;;-2.09;73.49;102415.69;4982290;28;20120;-44
2023/01/24 00:12:31;;;;;;;21.77;9.27;;;;;;;-2.13;72.35;102413.66;4972575;28;20054;-44
2023/01/24 00:14:58;;;;;;;23.95;8.45;;;;;;;-2.18;72.93;102412.38;4980104;28;20393;-44
2023/01/24 00:17:24;;;;;;;16.85;7.85;;;;;;;-2.21;72.24;102423.16;4984315;28;20490;-44
2023/01/24 00:19:51;;;;;;;17.05;9.10;;;;;;;-2.22;72.44;102430.63;4983827;28;20149;-45
2023/01/24 00:22:18;;;;;;;20.17;10.20;;;;;;;-2.24;72.52;102415.25;4981602;28;20125;-44
2023/01/24 00:24:45;;;;;;;22.48;10.57;;;;;;;-2.23;72.15;102416.16;4979559;28;20042;-45
2023/01/24 00:27:12;;;;;;;22.02;11.52;;;;;;;-2.25;72.49;102423.63;4975923;28;20054;-46
2023/01/24 00:29:38;;;;;;;20.30;10.50;;;;;;;-2.26;72.44;102420.97;4975016;28;20043;-44
2023/01/24 00:32:05;;;;;;;20.65;10.93;;;;;;;-2.28;72.31;102423.38;4975127;28;20047;-44
2023/01/24 00:34:32;;;;;;;17.90;7.85;;;;;;;-2.29;73.16;102420.69;4969397;28;20051;-43
2023/01/24 00:36:58;;;;;;;23.90;9.85;;;;;;;-2.30;72.95;102429.94;4965579;28;20042;-44
2023/01/24 00:39:25;;;;;;;21.75;11.93;;;;;;;-2.32;72.87;102424.72;4966578;28;20116;-44
2023/01/24 00:41:52;;;;;;;25.90;12.00;;;;;;;-2.29;72.91;102425.75;4975229;28;20050;-45
2023/01/24 00:44:18;;;;;;;23.23;9.77;;;;;;;-2.26;73.14;102415.88;4981279;28;20137;-45
2023/01/24 00:46:45;;;;;;;20.65;8.95;;;;;;;-2.24;72.92;102414.34;4971345;28;20097;-45
2023/01/24 00:49:11;;;;;;;24.10;9.48;;;;;;;-2.23;73.57;102416.16;4972153;28;20069;-43
2023/01/24 00:51:38;;;;;;;19.83;10.10;;;;;;;-2.23;73.37;102416.16;4981882;28;20132;-45
2023/01/24 00:54:05;;;;;;;19.30;10.25;;;;;;;-2.28;73.75;102422.47;4982592;28;20057;-44
2023/01/24 00:56:31;;;;;;;17.33;10.02;;;;;;;-2.34;73.36;102413.56;4980078;28;20100;-45
2023/01/24 00:58:58;;;;;;;16.80;7.28;;;;;;;-2.37;72.66;102415.81;4967071;28;20523;-44
2023/01/24 01:01:25;;;;;;;19.08;8.48;;;;;;;-2.39;73.63;102413.91;4967340;28;20461;-43
2023/01/24 01:03:55;;;;;;;20.67;10.57;;;;;;;-2.40;73.64;102409.59;4964737;28;20077;-45
2023/01/24 01:06:22;;;;;;;;;;;;;;;-2.46;72.93;102417.56;4959735;28;20110;-44
2023/01/24 01:08:50;;;;;;;13.82;7.15;;;;;;;-2.46;72.91;102407.41;4964688;28;19984;-44
2023/01/24 01:11:17;;;;;;;18.17;9.40;;;;;;;-2.46;72.55;102412.47;4965307;28;20050;-45
2023/01/24 01:13:48;;;;;;;21.08;7.88;;;;;;;-2.47;72.67;102400.53;4974495;28;20054;-45
2023/01/24 01:16:18;;;;;;;20.73;10.07;;;;;;;-2.49;73.42;102402.03;4978323;28;20047;-45
2023/01/24 01:18:46;;;;;;;17.92;9.73;;;;;;;-2.50;72.77;102406.22;4973517;28;20043;-45
2023/01/24 01:21:17;;;;;;;18.45;8.63;;;;;;;-2.51;73.65;102408.63;4979428;28;20050;-44
2023/01/24 01:23:44;;;;;;;15.38;6.72;;;;;;;-2.51;72.95;102413.69;4984490;28;20046;-44
2023/01/24 01:26:15;;;;;;;17.27;8.30;;;;;;;-2.49;72.99;102407.13;4978052;28;20046;-44
2023/01/24 01:28:42;;;;;;;19.15;9.20;;;;;;;-2.52;73.03;102406.84;4968856;28;20137;-45
2023/01/24 01:31:09;;;;;;;17.42;9.10;;;;;;;-2.53;73.30;102407.63;4964099;28;20134;-44
2023/01/24 01:33:35;;;;;;;19.70;7.22;;;;;;;-2.56;72.51;102404.78;4959161;28;20137;-45
2023/01/24 01:36:02;;;;;;;22.58;7.90;;;;;;;-2.60;73.52;102403.66;4965551;28;20051;-44
2023/01/24 01:38:29;;;;;;;21.30;9.65;;;;;;;-2.66;72.80;102403.09;4962162;28;20098;-46
2023/01/24 01:40:56;;;;;;;21.23;8.85;;;;;;;-2.70;72.46;102412.09;4959770;28;20063;-45
2023/01/24 01:43:26;;;;;;;16.15;8.93;;;;;;;-2.74;72.81;102404.91;4965116;28;20047;-45
2023/01/24 01:45:58;;;;;;;18.75;9.93;;;;;;;-2.76;73.10;102411.53;4964412;28;20129;-45
2023/01/24 01:53:45;;;;;;;19.02;8.63;;;;;;;-2.78;73.47;102413.00;5042077;27;20397;-45
2023/01/24 01:56:24;;;;;;;18.80;9.05;;;;;;;-2.78;72.87;102413.00;5038030;28;20064;-44
2023/01/24 01:58:52;;;;;;;18.67;9.48;;;;;;;-2.79;73.44;102418.84;5027918;28;20084;-46
2023/01/24 02:01:19;;;;;;;18.15;9.02;;;;;;;-2.80;72.78;102414.53;4999015;28;20050;-47
2023/01/24 02:03:57;;;;;;;20.55;9.70;;;;;;;-2.81;72.84;102413.63;5020337;28;20045;-44
2023/01/24 02:06:50;;;;;;;19.98;9.90;;;;;;;-2.82;73.62;102418.56;5040665;28;20041;-44
2023/01/24 02:09:22;;;;;;;20.80;9.95;;;;;;;-2.84;73.22;102419.31;5023810;28;20437;-45
2023/01/24 02:11:53;;;;;;;17.38;8.57;;;;;;;-2.85;73.24;102417.56;5009589;28;20562;-45
2023/01/24 02:17:10;;;;;;;21.38;9.25;;;;;;;-2.86;73.72;102435.16;5009212;28;20077;-44
2023/01/24 02:20:05;;;;;;;20.70;9.40;;;;;;;-2.85;72.80;102431.88;5015425;28;20069;-44
2023/01/24 02:28:18;;;;;;;22.45;7.05;;;;;;;-2.80;72.92;102434.81;5061389;27;20393;-45
2023/01/24 02:30:44;;;;;;;19.00;7.53;;;;;;;-2.79;73.30;102426.47;5020955;28;20132;-44
2023/01/24 02:33:13;;;;;;;20.05;9.93;;;;;;;-2.77;73.32;102422.44;5022508;28;20053;-44
2023/01/24 02:35:40;;;;;;;17.90;7.25;;;;;;;-2.74;74.05;102426.13;5021765;28;20077;-44
2023/01/24 02:38:17;;;;;;;16.77;7.90;;;;;;;-2.73;73.42;102427.03;5022077;28;20053;-45
2023/01/24 02:40:45;;;;;;;20.98;6.35;;;;;;;-2.75;73.82;102423.44;5035816;28;20050;-46
2023/01/24 02:43:14;;;;;;;17.48;8.10;;;;;;;-2.77;73.37;102424.97;5016938;28;20062;-43
2023/01/24 02:45:40;;;;;;;18.60;9.80;;;;;;;-2.78;73.89;102418.09;5019495;28;20735;-46
2023/01/24 02:48:07;;;;;;;20.10;7.40;;;;;;;-2.78;73.81;102423.16;5019620;28;20103;-46
2023/01/24 02:53:29;;;;;;;14.43;7.88;;;;;;;-2.77;73.29;102414.81;5018310;28;20050;-45
2023/01/24 02:53:29;;;;;;;20.60;8.70;;;;;;;-2.74;73.68;102417.59;5020209;28;20116;-45
2023/01/24 02:58:33;;;;;;;13.18;5.38;;;;;;;-2.65;74.00;102415.00;5090440;27;20402;-44
2023/01/24 03:01:00;;;;;;;16.08;6.55;;;;;;;-2.62;73.40;102431.41;5056621;28;20047;-45
2023/01/24 03:03:27;;;;;;;19.48;8.02;;;;;;;-2.61;73.17;102432.28;5061687;28;20102;-46
2023/01/24 03:05:57;;;;;;;15.80;7.78;;;;;;;-2.65;74.29;102426.06;5052454;28;20375;-46
2023/01/24 03:08:28;;;;;;;18.10;8.32;;;;;;;-2.68;73.74;102425.78;5055368;28;20061;-44
2023/01/24 03:10:55;;;;;;;24.92;8.77;;;;;;;-2.67;73.54;102432.63;5042916;28;20063;-45
2023/01/24 03:35:53;;;;;;;16.35;8.23;;;;;;;-2.50;74.01;102430.72;5050611;28;20047;-44
2023/01/24 03:41:08;;;;;;;18.60;6.97;;;;;;;-2.49;74.48;102419.81;5054710;28;20041;-45
2023/01/24 03:43:35;;;;;;;20.30;7.50;;;;;;;-2.54;74.36;102416.84;5052797;28;20075;-43
2023/01/24 03:46:02;;;;;;;18.70;6.47;;;;;;;-2.54;73.93;102414.31;5058542;28;20049;-45
2023/01/24 03:48:34;;;;;;;21.88;8.23;;;;;;;-2.50;74.65;102415.50;5056792;28;20098;-44
2023/01/24 03:53:47;;;;;;;19.70;7.28;;;;;;;-2.46;75.04;102415.03;5076483;28;20491;-44
2023/01/24 03:56:14;;;;;;;20.40;8.00;;;;;;;-2.44;73.89;102405.00;5075583;28;20048;-43
2023/01/24 03:58:41;;;;;;;21.20;8.27;;;;;;;-2.41;74.37;102410.31;5074470;28;20105;-46
2023/01/24 04:01:07;;;;;;;21.38;7.93;;;;;;;-2.39;74.25;102414.81;5064181;28;20072;-45
2023/01/24 04:03:34;;;;;;;26.92;9.10;;;;;;;-2.39;74.88;102403.75;5073293;28;20060;-45
2023/01/24 04:06:00;;;;;;;26.73;9.90;;;;;;;-2.40;74.70;102410.47;5070968;28;20045;-45
2023/01/24 04:08:27;;;;;;;22.85;7.68;;;;;;;-2.41;74.80;102416.31;5067134;28;20041;-44
2023/01/24 04:10:56;;;;;;;21.58;8.13;;;;;;;-2.45;74.68;102406.63;5063043;28;20124;-44
2023/01/24 04:13:23;;;;;;;21.58;7.82;;;;;;;-2.49;74.55;102412.19;5060068;28;20041;-45
2023/01/24 04:15:50;;;;;;;23.13;8.63;;;;;;;-2.51;74.19;102413.69;5067114;28;20298;-45
2023/01/24 04:18:16;;;;;;;24.27;8.63;;;;;;;-2.54;74.07;102413.44;5056159;28;20047;-44
2023/01/24 04:20:43;;;;;;;17.77;8.18;;;;;;;-2.56;73.73;102415.84;5055820;28;20124;-44
2023/01/24 04:23:11;;;;;;;17.77;8.63;;;;;;;-2.57;74.84;102419.13;5061047;28;20045;-45
2023/01/24 04:25:38;;;;;;;22.08;7.25;;;;;;;-2.59;74.03;102416.47;5062303;28;20052;-46
2023/01/24 04:28:05;;;;;;;18.20;7.78;;;;;;;-2.57;74.57;102414.03;5056934;28;20052;-45
2023/01/24 04:30:32;;;;;;;18.17;6.93;;;;;;;-2.59;74.52;102416.47;5062359;28;20075;-44
2023/01/24 04:32:59;;;;;;;18.88;6.97;;;;;;;-2.59;74.12;102419.00;5054513;28;20159;-46
2023/01/24 04:35:28;;;;;;;15.57;6.50;;;;;;;-2.60;74.60;102417.19;5059319;28;20052;-44
2023/01/24 04:38:00;;;;;;;19.48;6.50;;;;;;;-2.59;74.60;102415.56;5057170;28;20040;-44
2023/01/24 04:40:27;;;;;;;15.85;6.88;;;;;;;-2.56;73.87;102420.03;5059588;28;20605;-46
2023/01/24 04:42:56;;;;;;;17.38;6.18;;;;;;;-2.53;74.06;102415.22;5053906;28;20061;-45
2023/01/24 04:45:23;;;;;;;17.77;7.78;;;;;;;-2.49;74.11;102414.75;5059378;28;20543;-45
2023/01/24 04:47:50;;;;;;;15.18;6.38;;;;;;;-2.47;74.60;102415.75;5055687;28;20711;-46
2023/01/24 04:50:16;;;;;;;21.73;6.78;;;;;;;-2.46;74.38;102412.47;5053868;28;20127;-43
2023/01/24 04:52:43;;;;;;;15.40;6.28;;;;;;;-2.45;75.29;102414.25;5053155;28;20708;-43
2023/01/24 04:55:10;;;;;;;17.83;5.97;;;;;;;-2.43;75.01;102415.28;5062888;28;20106;-44
2023/01/24 04:57:36;;;;;;;19.65;6.53;;;;;;;-2.43;74.17;102412.75;5055726;28;20076;-47
2023/01/24 05:00:04;;;;;;;18.17;6.50;;;;;;;-2.42;75.07;102419.59;5059577;28;20097;-52
2023/01/24 05:02:32;;;;;;;14.75;6.15;;;;;;;-2.39;74.54;102414.81;5059486;28;20110;-45
2023/01/24 05:04:59;;;;;;;19.10;6.20;;;;;;;-2.37;74.95;102413.28;5056150;28;20084;-47
2023/01/24 05:07:25;;;;;;;21.92;7.28;;;;;;;-2.38;75.47;102416.59;5053432;28;20077;-45
2023/01/24 05:09:52;;;;;;;18.65;7.40;;;;;;;-2.41;74.79;102416.31;5051786;28;20451;-45
2023/01/24 05:12:19;;;;;;;13.63;5.28;;;;;;;-2.44;74.33;102421.09;5058232;28;20041;-44
2023/01/24 05:14:45;;;;;;;22.48;7.57;;;;;;;-2.47;74.17;102420.81;5063347;28;20059;-44
2023/01/24 05:17:12;;;;;;;17.02;7.28;;;;;;;-2.49;74.75;102418.19;5055251;28;20464;-44
2023/01/24 05:19:39;;;;;;;17.80;5.93;;;;;;;-2.48;75.13;102426.66;5057899;28;20049;-45
2023/01/24 05:22:05;;;;;;;21.00;6.95;;;;;;;-2.48;75.26;102424.13;5055680;28;20056;-43
2023/01/24 05:24:32;;;;;;;16.38;5.45;;;;;;;-2.48;74.59;102429.19;5057605;28;20058;-44
2023/01/24 05:26:59;;;;;;;14.38;5.50;;;;;;;-2.48;74.32;102426.66;5058578;28;20059;-45
2023/01/24 05:29:26;;;;;;;14.88;6.30;;;;;;;-2.49;74.27;102427.44;5060181;28;20048;-45
2023/01/24 05:31:52;;;;;;;18.10;7.75;;;;;;;-2.50;74.35;102430.72;5056197;28;20117;-45
2023/01/24 05:34:19;;;;;;;18.02;7.15;;;;;;;-2.50;74.76;102428.19;5057971;28;20090;-44
2023/01/24 05:36:46;;;;;;;19.08;5.85;;;;;;;-2.51;75.19;102427.28;5059774;28;20049;-45
2023/01/24 05:39:14;;;;;;;18.35;6.15;;;;;;;-2.50;74.46;102425.66;5053549;28;20513;-43
2023/01/24 05:41:41;;;;;;;14.40;6.15;;;;;;;-2.50;74.31;102433.28;5050832;28;20474;-44
2023/01/24 05:44:07;;;;;;;15.45;6.53;;;;;;;-2.53;74.90;102426.25;5077639;28;20095;-44
2023/01/24 05:46:35;;;;;;;16.00;6.90;;;;;;;-2.52;74.45;102437.31;5056103;28;20055;-44
2023/01/24 05:49:02;;;;;;;20.67;6.55;;;;;;;-2.52;74.72;102434.75;5053174;28;20040;-45
2023/01/24 05:51:28;;;;;;;16.55;6.90;;;;;;;-2.54;74.51;102428.69;5058861;28;20139;-45
2023/01/24 05:53:55;;;;;;;15.80;6.28;;;;;;;-2.54;74.91;102429.53;5061251;28;20051;-45
2023/01/24 05:56:22;;;;;;;16.23;6.18;;;;;;;-2.55;74.52;102431.94;5057121;28;20437;-45
2023/01/24 05:58:48;;;;;;;20.52;7.35;;;;;;;-2.58;74.80;102430.94;5061262;28;20056;-43
2023/01/24 06:03:53;;;;;;;21.98;7.00;;;;;;;-2.58;74.91;102443.63;5103497;27;20394;-45
2023/01/24 06:06:21;;;;;;;20.13;8.40;;;;;;;-2.56;75.12;102445.41;5062460;28;20071;-45
2023/01/24 06:08:49;;;;;;;19.55;7.32;;;;;;;-2.55;75.64;102452.25;5062448;28;20052;-45
2023/01/24 06:11:19;;;;;;;20.25;8.27;;;;;;;-2.54;75.50;102444.78;5060938;28;20111;-44
2023/01/24 06:13:46;;;;;;;17.67;7.25;;;;;;;-2.53;75.25;102443.13;5064620;28;20051;-45
2023/01/24 06:16:17;;;;;;;23.88;8.75;;;;;;;-2.53;75.26;102446.53;5058498;28;20064;-44
2023/01/24 06:18:44;;;;;;;17.45;8.07;;;;;;;-2.55;75.55;102442.09;5060713;28;20565;-45
2023/01/24 06:23:48;;;;;;;23.95;10.32;;;;;;;-2.56;75.13;102445.41;5103194;27;20375;-44
2023/01/24 06:26:15;;;;;;;26.35;9.27;;;;;;;-2.56;75.17;102445.41;5047526;28;20382;-43
2023/01/24 06:28:41;;;;;;;20.67;7.30;;;;;;;-2.54;75.95;102448.97;5038641;28;20127;-45
2023/01/24 06:34:24;;;;;;;17.48;7.47;;;;;;;-2.66;74.96;102448.75;5055298;28;20849;-44
2023/01/24 06:39:27;;;;;;;18.83;6.95;;;;;;;-2.77;75.31;102452.88;5056913;27;20407;-46
2023/01/24 06:41:54;;;;;;;20.98;7.78;;;;;;;-2.78;74.78;102453.59;5013624;28;20061;-46
2023/01/24 06:44:21;;;;;;;21.35;7.95;;;;;;;-2.78;75.33;102463.75;5013749;28;20057;-45
2023/01/24 06:46:48;;;;;;;27.80;10.43;;;;;;;-2.75;75.24;102464.03;5036441;28;20102;-46
2023/01/24 06:49:14;;;;;;;23.17;9.48;;;;;;;-2.70;76.03;102467.91;5056054;28;20044;-45
2023/01/24 06:51:41;;;;;;;24.25;10.50;;;;;;;-2.70;76.18;102457.75;5059097;28;20036;-45
2023/01/24 06:54:08;;;;;;;31.50;14.55;;;;;;;-2.70;75.53;102462.81;5056611;28;20135;-47
2023/01/24 06:56:34;;;;;;;30.48;13.30;;;;;;;-2.69;75.83;102468.78;5050684;28;20049;-46
2023/01/24 06:59:01;;;;;;;25.80;9.98;;;;;;;-2.71;75.26;102471.16;5054530;28;20045;-46
2023/01/24 07:01:28;;;;;;;27.15;10.18;;;;;;;-2.73;75.88;102467.63;5057494;28;20106;-46
2023/01/24 07:03:55;;;;;;;26.02;9.57;;;;;;;-2.75;75.83;102461.50;5053004;28;20044;-45
2023/01/24 07:06:23;;;;;;;20.85;8.38;;;;;;;-2.79;76.10;102457.81;5048292;28;20056;-45
2023/01/24 07:08:49;;;;;;;26.17;9.60;;;;;;;-2.81;75.03;102459.28;5046626;28;20052;-45
2023/01/24 07:11:16;;;;;;;20.65;8.02;;;;;;;-2.84;75.17;102459.91;5045993;28;20142;-44
2023/01/24 07:13:43;;;;;;;22.17;11.15;;;;;;;-2.82;75.10;102461.69;5052886;28;20124;-44
2023/01/24 07:16:09;;;;;;;24.88;10.35;;;;;;;-2.83;75.21;102458.28;5045395;28;20049;-44
2023/01/24 07:18:36;;;;;;;23.73;9.15;;;;;;;-2.82;74.92;102456.59;5054193;28;20132;-44
2023/01/24 07:21:06;;;;;;;26.48;9.27;;;;;;;-2.77;75.32;102460.47;5058998;28;20139;-45
2023/01/24 07:23:34;;;;;;;21.83;8.63;;;;;;;-2.75;75.92;102458.97;5050272;28;20052;-47
2023/01/24 07:26:03;;;;;;;20.50;10.00;;;;;;;-2.74;75.58;102460.72;5050454;28;20076;-46
2023/01/24 07:28:30;;;;;;;24.27;9.82;;;;;;;-2.74;75.74;102460.72;5045602;28;20045;-46
2023/01/24 07:30:56;;;;;;;23.65;9.30;;;;;;;-2.73;75.40;102462.53;5045736;28;20765;-45
2023/01/24 07:33:23;;;;;;;24.63;10.23;;;;;;;-2.72;75.54;102464.31;5055978;28;20053;-45
2023/01/24 07:35:50;;;;;;;21.52;10.93;;;;;;;-2.71;75.14;102466.09;5055152;28;20045;-46
2023/01/24 07:38:16;;;;;;;51.67;19.13;;;;;;;-2.70;76.34;102467.91;5049063;28;20053;-47
2023/01/24 07:40:43;;;;;;;26.23;10.63;;;;;;;-2.67;75.30;102473.22;5046641;28;20052;-44
2023/01/24 07:43:10;;;;;;;35.33;12.77;;;;;;;-2.65;76.02;102475.91;5042883;28;20057;-45
2023/01/24 07:45:38;;;;;;;26.00;12.10;;;;;;;-2.63;76.10;102470.22;5041310;28;20164;-46
2023/01/24 07:48:06;;;;;;;21.50;8.82;;;;;;;-2.62;76.06;102469.47;5046966;28;20055;-45
2023/01/24 07:50:34;;;;;;;24.23;9.93;;;;;;;-2.59;75.61;102471.41;5028783;28;21538;-45
2023/01/24 07:53:00;;;;;;;41.33;15.82;;;;;;;-2.56;75.67;102463.16;5034753;28;20049;-45
2023/01/24 07:55:27;;;;;;;24.40;9.70;;;;;;;-2.59;75.48;102469.75;5031532;28;20560;-44
2023/01/24 07:58:00;;;;;;;24.88;8.88;;;;;;;-2.63;75.48;102470.22;5031711;28;20180;-44
2023/01/24 08:00:27;;;;;;;29.80;10.20;;;;;;;-2.68;76.04;102473.97;5029652;28;20145;-47
2023/01/24 08:02:54;;;;;;;26.77;10.65;;;;;;;-2.73;76.11;102472.69;5037341;28;20041;-46
2023/01/24 08:05:21;;;;;;;21.08;7.78;;;;;;;-2.75;75.73;102475.09;5030715;28;20081;-45
2023/01/24 08:07:47;;;;;;;21.42;9.50;;;;;;;-2.74;75.61;102474.31;5035608;28;20123;-47
2023/01/24 08:10:14;;;;;;;23.70;9.52;;;;;;;-2.67;75.84;102473.22;5030871;28;20126;-47
2023/01/24 08:12:41;;;;;;;27.88;11.32;;;;;;;-2.53;76.22;102476.13;5033180;28;20045;-44
2023/01/24 08:15:08;;;;;;;37.88;15.35;;;;;;;-2.42;76.07;102472.91;5029958;28;20128;-46
2023/01/24 08:17:37;;;;;;;29.05;13.18;;;;;;;-2.29;75.72;102482.53;5034020;28;20669;-46
2023/01/24 08:20:04;;;;;;;29.77;13.05;;;;;;;-2.11;76.49;102482.34;5034414;28;20047;-45
2023/01/24 08:22:31;;;;;;;29.73;14.10;;;;;;;-1.92;76.88;102489.97;5032502;28;20124;-46
2023/01/24 08:24:57;;;;;;;27.75;10.75;;;;;;;-1.83;76.25;102488.22;5027008;28;20107;-45
2023/01/24 08:27:24;;;;;;;18.95;8.05;;;;;;;-1.82;76.09;102482.38;5031707;28;20053;-45
2023/01/24 08:29:51;;;;;;;21.05;8.50;;;;;;;-1.56;75.39;102490.47;5031035;28;20041;-46
2023/01/24 08:32:18;;;;;;;24.13;9.23;;;;;;;-1.20;75.22;102485.88;5030032;28;20041;-47
2023/01/24 08:34:45;;;;;;;23.70;8.95;;;;;;;-0.91;75.18;102490.88;5031191;28;20053;-45
2023/01/24 08:37:12;;;;;;;25.85;11.98;;;;;;;-0.50;75.53;102488.19;5029454;28;20057;-46
2023/01/24 08:39:38;;;;;;;29.13;12.73;;;;;;;0.16;74.67;102495.16;5029253;28;20092;-46
2023/01/24 08:42:05;;;;;;;31.90;13.27;;;;;;;0.89;74.24;102497.34;5041980;28;20476;-46
2023/01/24 08:44:32;;;;;;;28.45;13.43;;;;;;;1.45;74.36;102496.41;5044512;28;20045;-47
2023/01/24 08:46:58;;;;;;;27.90;10.98;;;;;;;1.90;72.82;102494.56;5036311;28;20083;-45
2023/01/24 08:49:25;;;;;;;28.92;12.52;;;;;;;2.16;72.86;102499.78;5040058;28;20061;-46
2023/01/24 08:51:58;;;;;;;31.45;12.57;;;;;;;2.52;73.75;102505.72;5041644;28;20498;-47
2023/01/24 08:54:28;;;;;;;32.47;13.82;;;;;;;3.16;72.98;102504.03;5034295;28;20504;-47
2023/01/24 08:56:55;;;;;;;37.55;13.40;;;;;;;3.93;73.14;102499.63;5019571;28;20041;-46
2023/01/24 08:59:22;;;;;;;32.13;14.35;;;;;;;4.68;72.17;102501.66;5042051;28;20047;-46
2023/01/24 09:01:48;;;;;;;34.65;16.55;;;;;;;5.37;71.54;102494.63;5034376;28;20049;-48
2023/01/24 09:04:15;;;;;;;32.80;17.42;;;;;;;6.04;70.70;102505.22;5030788;28;20103;-46
2023/01/24 09:06:42;;;;;;;33.90;14.48;;;;;;;6.56;71.26;102496.03;5040592;28;20789;-47
2023/01/24 09:09:08;;;;;;;28.48;14.48;;;;;;;6.95;69.68;102503.19;5035174;28;20048;-46
2023/01/24 09:11:35;;;;;;;26.65;12.23;;;;;;;7.17;69.42;102502.59;5032017;28;20055;-47
2023/01/24 09:14:02;;;;;;;33.53;14.27;;;;;;;7.43;70.66;102505.59;5033962;28;20041;-48
2023/01/24 09:16:28;;;;;;;24.60;11.57;;;;;;;7.70;70.83;102505.19;5037385;28;20420;-48
2023/01/24 09:18:56;;;;;;;26.05;13.07;;;;;;;7.89;70.51;102511.25;5041121;28;20155;-48
2023/01/24 09:21:22;;;;;;;23.92;13.48;;;;;;;8.08;70.67;102507.84;5037008;28;20048;-47
2023/01/24 09:23:49;;;;;;;25.05;13.82;;;;;;;8.40;69.68;102505.00;5033650;28;20045;-48
2023/01/24 09:26:15;;;;;;;25.33;11.23;;;;;;;8.92;68.50;102505.59;5041088;28;20045;-48
2023/01/24 09:28:42;;;;;;;24.65;12.15;;;;;;;9.34;67.90;102501.31;5029259;28;20095;-47
2023/01/24 09:31:10;;;;;;;24.75;12.25;;;;;;;9.98;66.78;102509.94;5031259;28;20067;-48
2023/01/24 09:33:37;;;;;;;22.05;12.90;;;;;;;10.76;66.34;102501.59;5037786;28;20045;-48
2023/01/24 09:36:15;;;;;;;22.92;13.57;;;;;;;11.69;64.23;102509.06;5039765;28;20135;-47
2023/01/24 09:38:42;;;;;;;29.75;17.05;;;;;;;12.48;62.12;102505.41;5034379;28;20052;-50
2023/01/24 09:41:41;;;;;;;28.08;17.55;;;;;;;13.34;61.30;102508.56;5033510;28;20073;-48
2023/01/24 09:44:22;;;;;;;23.90;13.75;;;;;;;14.09;60.23;102509.47;5030651;28;20045;-49
2023/01/24 09:46:53;;;;;;;24.50;14.13;;;;;;;14.77;58.74;102510.03;5035872;28;20045;-48
2023/01/24 09:49:34;;;;;;;23.45;14.40;;;;;;;15.38;57.60;102509.38;5035513;28;20115;-48
2023/01/24 09:52:04;;;;;;;21.38;13.38;;;;;;;15.87;55.90;102508.38;5034576;28;20111;-49
2023/01/24 09:54:51;;;;;;;;;;;;;;;16.40;56.69;102503.00;5035445;28;20088;-49
2023/01/24 09:57:27;;;;;;;22.20;14.90;;;;;;;17.02;54.10;102505.44;5033709;28;20384;-53
2023/01/24 10:00:00;;;;;;;21.42;13.27;;;;;;;17.50;52.27;102507.59;5036598;28;20045;-49
2023/01/24 10:02:28;;;;;;;19.50;12.55;;;;;;;17.94;51.58;102504.38;5036753;28;20119;-48
2023/01/24 10:04:55;;;;;;;25.38;14.43;;;;;;;18.39;50.63;102503.78;5034667;28;20168;-50
2023/01/24 10:16:26;;;;;;;30.45;18.63;;;;;;;19.33;46.75;102503.97;5070401;27;20395;-48
2023/01/24 10:19:25;;;;;;;43.28;25.95;;;;;;;19.71;46.00;102503.03;5032167;28;20417;-49
2023/01/24 10:24:35;;;;;;;21.95;12.10;;;;;;;20.26;43.68;102503.78;5064448;28;20381;-50
2023/01/24 10:27:25;;;;;;;27.88;14.90;;;;;;;20.38;43.05;102501.97;5002295;28;20160;-49
2023/01/24 10:29:58;;;;;;;31.40;19.48;;;;;;;20.53;42.88;102501.91;5011651;28;20736;-48
2023/01/24 10:32:31;;;;;;;31.30;18.02;;;;;;;20.69;42.19;102496.53;5005220;28;20050;-50
2023/01/24 10:35:02;;;;;;;16.52;9.45;;;;;;;;;;5012518;28;20045;-51
2023/01/24 10:37:33;;;;;;;16.98;11.73;;;;;;;20.87;41.28;102494.69;5000512;28;20461;-49
2023/01/24 10:40:00;;;;;;;19.67;12.65;;;;;;;20.89;41.44;102490.28;5005634;28;20050;-52
2023/01/24 10:42:30;;;;;;;16.58;10.65;;;;;;;20.95;40.29;102489.38;5000014;28;20430;-48
2023/01/24 10:45:17;;;;;;;16.20;9.48;;;;;;;20.80;39.67;102488.56;5014496;28;20053;-48
2023/01/24 10:47:50;;;;;;;16.80;9.43;;;;;;;20.24;40.05;102489.78;5001810;28;20417;-49
2023/01/24 10:50:18;;;;;;;17.98;9.65;;;;;;;19.69;40.65;102486.38;5000080;28;20085;-49
2023/01/24 10:52:46;;;;;;;20.08;11.20;;;;;;;19.04;40.45;102491.69;4998398;28;20465;-49
2023/01/24 10:55:36;;;;;;;19.08;11.20;;;;;;;18.04;40.85;102486.97;5000047;28;20053;-51
2023/01/24 10:58:20;;;;;;;21.27;10.93;;;;;;;17.09;41.65;102478.44;4996818;28;20085;-49
2023/01/24 11:00:56;;;;;;;24.58;11.75;;;;;;;16.29;42.37;102474.09;5012997;28;20050;-51
2023/01/24 11:03:27;;;;;;;20.40;10.45;;;;;;;15.54;43.81;102473.94;4997994;28;20100;-49
2023/01/24 11:05:57;;;;;;;18.80;9.75;;;;;;;14.87;44.69;102475.44;4997134;28;20058;-49
2023/01/24 11:08:35;;;;;;;16.05;9.18;;;;;;;14.33;44.86;102472.63;4999749;28;20105;-50
2023/01/24 11:11:03;;;;;;;17.17;9.88;;;;;;;13.75;46.27;102467.91;4994699;28;20046;-48
2023/01/24 11:13:39;;;;;;;22.75;11.02;;;;;;;13.23;46.64;102468.38;4996329;28;20921;-51
2023/01/24 11:16:21;;;;;;;19.77;9.88;;;;;;;12.76;47.59;102459.38;5012358;28;20089;-47
2023/01/24 11:18:51;;;;;;;17.88;9.35;;;;;;;12.47;48.77;102449.06;4996771;28;20549;-49
2023/01/24 11:21:19;;;;;;;32.03;14.63;;;;;;;12.10;48.68;102451.50;4996873;28;20054;-48
2023/01/24 11:24:00;;;;;;;22.92;11.85;;;;;;;11.70;49.48;102452.00;4995329;28;20046;-49
2023/01/24 11:26:30;;;;;;;19.80;10.10;;;;;;;11.45;50.05;102450.31;4998913;28;20387;-50
2023/01/24 11:29:02;;;;;;;26.20;14.15;;;;;;;11.10;49.83;102452.63;4996731;28;20050;-51
2023/01/24 11:31:37;;;;;;;18.08;9.65;;;;;;;10.83;50.78;102458.63;4993909;28;20046;-47
2023/01/24 12:10:06;;;;;;;17.52;8.10;;;;;;;8.22;54.72;102397.50;5033474;28;20393;-47
2023/01/24 12:15:38;;;;;;;20.90;9.60;;;;;;;8.10;55.78;102386.59;5033803;28;20425;-49
2023/01/24 12:18:40;;;;;;;17.30;8.38;;;;;;;8.00;56.24;102400.78;5011647;28;20072;-50
2023/01/24 12:21:09;;;;;;;19.58;8.18;;;;;;;7.99;56.67;102393.84;5016280;28;20077;-48
2023/01/24 12:26:27;;;;;;;42.13;15.38;;;;;;;7.91;56.59;102396.06;5004440;28;20433;-48
2023/01/24 12:29:07;;;;;;;38.28;14.23;;;;;;;7.85;56.26;102390.66;4987412;28;20054;-46
2023/01/24 12:45:22;;;;;;;22.80;10.15;;;;;;;7.45;57.06;102377.66;5104697;27;20373;-46
2023/01/24 12:47:56;;;;;;;25.83;10.93;;;;;;;7.39;56.93;102372.19;5025703;28;20057;-46
2023/01/24 12:50:38;;;;;;;23.02;10.27;;;;;;;7.32;58.42;102373.59;5044729;28;20053;-47
2023/01/24 12:53:17;;;;;;;24.58;10.27;;;;;;;7.26;57.35;102372.41;5047439;28;20051;-48
2023/01/24 12:56:21;;;;;;;26.15;11.25;;;;;;;7.16;58.29;102377.09;5062435;28;20069;-49
2023/01/24 12:58:51;;;;;;;32.83;12.63;;;;;;;7.13;57.33;102364.06;5030454;28;20045;-46
2023/01/24 13:07:17;;;;;;;28.35;14.88;;;;;;;7.35;58.42;102371.94;5070828;27;20392;-50
2023/01/24 13:10:26;;;;;;;28.65;12.95;;;;;;;7.12;58.48;102370.03;5023565;28;20773;-47
2023/01/24 13:12:54;;;;;;;23.85;11.70;;;;;;;7.11;59.73;102363.13;5023102;28;20117;-45
2023/01/24 13:15:32;;;;;;;27.77;12.35;;;;;;;7.06;59.30;102365.47;5020869;28;20386;-46
2023/01/24 13:23:35;;;;;;;29.95;13.63;;;;;;;6.84;59.31;102367.78;5013699;28;20403;-48
2023/01/24 13:34:35;;;;;;;32.47;13.15;;;;;;;6.57;59.81;102353.59;5075672;27;20918;-50
2023/01/24 13:37:03;;;;;;;38.90;13.73;;;;;;;6.56;59.84;102351.81;5057880;28;20057;-47
2023/01/24 13:44:47;;;;;;;27.30;11.80;;;;;;;6.43;60.39;102351.19;5139145;27;20379;-47
2023/01/24 14:08:43;;;;;;;38.40;18.83;;;;;;;6.23;61.80;102346.69;5040016;27;20397;-49
2023/01/24 14:11:21;;;;;;;32.53;13.05;;;;;;;6.15;62.10;102354.88;5018429;28;20142;-48
2023/01/24 14:19:23;;;;;;;37.42;18.08;;;;;;;6.01;62.19;102345.53;5070010;27;20399;-47
2023/01/24 14:21:53;;;;;;;33.83;16.35;;;;;;;6.01;62.54;102345.53;5058361;28;20052;-46